METAR LDZA 190400Z 00000KT CAVOK 15/15 Q1016 NOSIG =
METAR LDZA 190330Z VRB01KT CAVOK 16/14 Q1015 NOSIG =
METAR LDZA 190300Z 00000KT CAVOK 16/15 Q1015 NOSIG =
METAR LDZA 190230Z 12002KT CAVOK 16/15 Q1015 NOSIG =
METAR LDZA 190200Z 00000KT CAVOK 16/14 Q1015 NOSIG =
METAR LDZA 190130Z VRB01KT CAVOK 16/14 Q1015 NOSIG =
METAR LDZA 190100Z 12003KT 080V150 CAVOK 16/15 Q1015 NOSIG =
METAR LDZA 190030Z 24004KT CAVOK 17/15 Q1015 NOSIG =
METAR LDZA 190000Z VRB01KT CAVOK 17/15 Q1015 NOSIG =
METAR LDZA 182330Z VRB01KT CAVOK 17/15 Q1015 NOSIG =
METAR LDZA 182300Z 00000KT CAVOK 17/15 Q1015 NOSIG =
METAR LDZA 182230Z 13003KT 100V180 CAVOK 17/15 Q1015 NOSIG =
METAR LDZA 182200Z 31004KT CAVOK 18/15 Q1014 NOSIG =
METAR LDZA 182130Z 12002KT CAVOK 19/15 Q1014 NOSIG =
METAR LDZA 182100Z 06003KT 360V150 CAVOK 19/15 Q1014 NOSIG =
METAR LDZA 182030Z 25004KT CAVOK 19/15 Q1014 NOSIG =
METAR LDZA 182000Z 28003KT CAVOK 19/15 Q1014 NOSIG =
METAR LDZA 181930Z VRB01KT CAVOK 20/15 Q1014 NOSIG =
METAR LDZA 181900Z 12003KT 090V160 9999 FEW045 21/14 Q1013 NOSIG =
METAR LDZA 181830Z 05010KT 010V080 9999 TS FEW038CB SCT043 22/14 Q1013 BECMG TL2000 VRB02KT NSW FEW045 =
METAR LDZA 181800Z 02005KT 320V070 9999 TS FEW036CB SCT043 24/14 Q1013 BECMG TL1900 NSW FEW045 =
METAR LDZA 181730Z 29004KT 240V340 9999 FEW040CB 25/18 Q1013 RETS TEMPO 05010KT BECMG TL1800 FEW045 =
METAR LDZA 181700Z 22004KT 160V260 9999 FEW045CB 26/18 Q1012 TEMPO 05010KT BECMG TL1800 FEW045 =
METAR LDZA 181630Z 19005KT 110V250 9999 FEW045 27/17 Q1012 NOSIG =
METAR LDZA 181600Z 20005KT 080V240 9999 FEW045 27/17 Q1011 NOSIG =
METAR LDZA 181530Z 25004KT 190V330 9999 FEW048 28/15 Q1012 NOSIG =
METAR LDZA 181500Z VRB03KT 9999 FEW045 28/16 Q1012 NOSIG =
METAR LDZA 181430Z 22004KT 130V290 9999 FEW045 28/17 Q1012 NOSIG =
METAR LDZA 181400Z 28004KT 230V010 9999 FEW045 27/16 Q1012 NOSIG =
METAR LDZA 181330Z VRB03KT 9999 FEW035 27/17 Q1012 NOSIG =
METAR LDZA 181300Z VRB03KT 9999 FEW025 26/18 Q1012 NOSIG =
METAR LDZA 181230Z 18004KT 100V250 9999 FEW025 26/18 Q1012 NOSIG =
METAR LDZA 181200Z 22003KT 170V300 9999 FEW025 25/17 Q1013 NOSIG =
METAR LDZA 181130Z 26004KT 200V320 9999 FEW035 25/17 Q1013 NOSIG =
METAR LDZA 181100Z VRB03KT 9999 FEW035 25/16 Q1013 NOSIG =
METAR LDZA 181030Z VRB02KT 9999 FEW035 25/16 Q1013 NOSIG =
METAR LDZA 181000Z VRB02KT 9999 FEW030 25/15 Q1013 NOSIG =
METAR LDZA 180930Z VRB01KT 9999 FEW030 24/16 Q1013 NOSIG =
METAR LDZA 180900Z 10003KT 040V160 9999 FEW030 24/17 Q1013 NOSIG =
METAR LDZA 180830Z 09004KT 020V140 9999 FEW025 23/17 Q1012 NOSIG =
METAR LDZA 180800Z 11003KT 040V170 9999 FEW050TCU 23/16 Q1012 BECMG FEW040 =
METAR LDZA 180730Z 09003KT 020V150 CAVOK 24/16 Q1012 NOSIG =
METAR LDZA 180700Z 00000KT CAVOK 23/16 Q1012 NOSIG =
METAR LDZA 180630Z VRB01KT CAVOK 22/16 Q1012 NOSIG =
METAR LDZA 180600Z VRB02KT CAVOK 20/16 Q1012 TEMPO FEW040TCU =
METAR LDZA 180530Z 26003KT 230V290 CAVOK 19/16 Q1012 TEMPO FEW040TCU =
METAR LDZA 180500Z 13001KT CAVOK 18/16 Q1012 TEMPO TSRA FEW040CB =
METAR LDZA 180430Z VRB02KT CAVOK 17/16 Q1012 TEMPO TSRA FEW040CB =
METAR LDZA 180400Z 26002KT CAVOK 17/15 Q1011 TEMPO TSRA FEW040CB =
METAR LDZA 180330Z 00000KT CAVOK 17/15 Q1011 NOSIG =
METAR LDZA 180300Z VRB02KT CAVOK 17/15 Q1011 NOSIG =
METAR LDZA 180230Z 00000KT CAVOK 17/15 Q1011 NOSIG =
METAR LDZA 180200Z 00000KT CAVOK 18/15 Q1011 NOSIG =
METAR LDZA 180130Z VRB02KT CAVOK 18/16 Q1011 NOSIG =
METAR LDZA 180100Z VRB02KT CAVOK 19/16 Q1011 NOSIG =
METAR LDZA 180030Z 00000KT CAVOK 18/16 Q1011 NOSIG =
METAR LDZA 180000Z VRB01KT CAVOK 19/16 Q1011 NOSIG =
METAR COR LDZA 172330Z 00000KT CAVOK 20/15 Q1012 NOSIG =
METAR LDZA 172300Z VRB02KT CAVOK 20/15 Q1012 NOSIG =
METAR LDZA 172230Z 03004KT 350V080 CAVOK 20/15 Q1012 NOSIG =
METAR LDZA 172200Z 04003KT CAVOK 20/15 Q1012 NOSIG =
METAR LDZA 172130Z 04005KT 340V090 CAVOK 20/16 Q1011 NOSIG =
METAR LDZA 172100Z 00000KT CAVOK 20/16 Q1011 NOSIG =
METAR LDZA 172030Z VRB02KT CAVOK 21/16 Q1011 NOSIG =
METAR LDZA 172000Z 00000KT CAVOK 22/15 Q1011 NOSIG =
METAR LDZA 171930Z VRB01KT CAVOK 23/15 Q1011 NOSIG =
METAR LDZA 171900Z 13003KT 110V170 CAVOK 23/15 Q1011 NOSIG =
METAR LDZA 171830Z 12002KT CAVOK 24/15 Q1011 NOSIG =
METAR LDZA 171800Z 13003KT 110V170 CAVOK 25/14 Q1011 NOSIG =
METAR LDZA 171730Z 13005KT 100V170 CAVOK 26/14 Q1010 NOSIG =
METAR LDZA 171700Z 14005KT 100V220 CAVOK 27/14 Q1011 NOSIG =
METAR LDZA 171630Z 14006KT 100V230 CAVOK 27/14 Q1011 NOSIG =